Time;durP1;ratioP1;P1;durP2;ratioP2;P2;SDS_P1;SDS_P2;PMS_P1;PMS_P2;Temp;Humidity;BMP_temperature;BMP_pressure;BME280_temperature;BME280_humidity;BME280_pressure;Samples;Min_cycle;Max_cycle;Signal;HPM_P1;HPM_P2
2023/10/16 00:02:22;;;;;;;1.25;0.80;;;11.50;99.90;;;;;;5074717;28;20198;-63
2023/10/16 00:04:52;;;;;;;3.85;1.02;;;11.60;99.90;;;;;;5083352;28;20729;-67
2023/10/16 00:07:21;;;;;;;3.25;0.85;;;12.00;99.90;;;;;;5076633;28;20681;-65
2023/10/16 00:09:53;;;;;;;1.00;0.60;;;12.00;99.90;;;;;;5080492;28;20199;-64
2023/10/16 00:12:23;;;;;;;1.60;0.98;;;12.30;99.90;;;;;;5076979;28;20213;-63
2023/10/16 00:14:51;;;;;;;0.80;0.60;;;12.20;99.90;;;;;;5076634;28;20662;-66
2023/10/16 00:17:21;;;;;;;3.13;1.05;;;12.00;99.90;;;;;;5076400;28;20207;-65
2023/10/16 00:19:54;;;;;;;1.88;0.70;;;12.00;99.90;;;;;;5078773;28;20640;-64
2023/10/16 00:22:22;;;;;;;1.15;0.85;;;12.10;99.90;;;;;;5091234;28;20241;-63
2023/10/16 00:24:50;;;;;;;3.08;1.15;;;11.60;99.90;;;;;;5080826;28;20277;-64
2023/10/16 00:27:18;;;;;;;1.25;0.80;;;11.40;99.90;;;;;;5072749;28;20203;-63
2023/10/16 00:29:48;;;;;;;0.80;0.70;;;11.70;99.90;;;;;;5076770;28;20569;-63
2023/10/16 00:32:16;;;;;;;3.65;0.85;;;11.70;99.90;;;;;;5079364;28;20209;-66
2023/10/16 00:34:44;;;;;;;5.15;0.80;;;11.70;99.90;;;;;;5073596;28;20697;-64
2023/10/16 00:37:14;;;;;;;1.98;0.80;;;11.60;99.90;;;;;;5073331;28;20214;-63
2023/10/16 00:39:42;;;;;;;2.25;0.90;;;11.60;99.90;;;;;;5076462;28;20670;-67
2023/10/16 00:42:10;;;;;;;1.95;0.90;;;11.40;99.90;;;;;;5078673;28;20282;-63
2023/10/16 00:44:38;;;;;;;1.17;0.80;;;11.40;99.90;;;;;;5076485;28;20288;-63
2023/10/16 00:47:09;;;;;;;1.90;0.75;;;11.30;99.90;;;;;;5079415;28;20285;-64
2023/10/16 00:49:38;;;;;;;1.60;0.70;;;11.30;99.90;;;;;;5076250;28;20203;-64
2023/10/16 00:52:07;;;;;;;0.80;0.80;;;11.10;99.90;;;;;;5086225;28;20195;-63
2023/10/16 00:54:41;;;;;;;2.17;0.73;;;10.80;99.90;;;;;;5080239;28;20242;-64
2023/10/16 00:57:11;;;;;;;1.80;1.10;;;10.70;99.90;;;;;;5096571;28;20271;-64
2023/10/16 00:59:41;;;;;;;3.50;1.10;;;10.80;99.90;;;;;;5093148;28;20260;-64
2023/10/16 01:02:13;;;;;;;2.20;1.05;;;10.50;99.90;;;;;;5093302;28;20565;-66
2023/10/16 01:04:43;;;;;;;2.25;1.20;;;10.50;99.90;;;;;;5085100;28;20250;-63
2023/10/16 01:07:14;;;;;;;1.10;0.85;;;10.30;99.90;;;;;;5093100;28;20297;-64
2023/10/16 01:09:46;;;;;;;1.98;1.00;;;10.10;99.90;;;;;;5089314;28;20198;-64
2023/10/16 01:12:15;;;;;;;2.03;1.20;;;10.20;99.90;;;;;;5093217;28;20195;-63
2023/10/16 01:14:44;;;;;;;1.00;0.90;;;10.00;99.90;;;;;;5093106;28;20222;-63
2023/10/16 01:17:12;;;;;;;1.20;1.10;;;10.30;99.90;;;;;;5089534;28;20711;-64
2023/10/16 01:19:43;;;;;;;1.95;1.73;;;10.50;99.90;;;;;;5090400;28;20267;-63
2023/10/16 01:22:13;;;;;;;4.05;1.58;;;10.30;99.90;;;;;;5076770;28;20238;-64
2023/10/16 01:24:46;;;;;;;3.30;1.00;;;10.40;99.90;;;;;;5084476;28;20735;-63
2023/10/16 01:27:27;;;;;;;1.80;1.10;;;10.50;99.90;;;;;;5092801;28;20248;-63
2023/10/16 01:29:59;;;;;;;1.92;1.52;;;10.40;99.90;;;;;;5088662;28;20210;-63
2023/10/16 01:32:28;;;;;;;2.17;1.40;;;10.50;99.90;;;;;;5090888;28;20202;-64
2023/10/16 01:34:56;;;;;;;1.98;1.77;;;10.50;99.90;;;;;;5092897;28;20227;-63
2023/10/16 01:37:25;;;;;;;2.45;1.17;;;10.40;99.90;;;;;;5091944;28;20210;-64
2023/10/16 01:40:14;;;;;;;3.05;1.70;;;10.70;99.90;;;;;;5093303;28;20290;-64
2023/10/16 01:42:42;;;;;;;2.03;1.40;;;10.90;99.90;;;;;;5096704;28;20638;-64
2023/10/16 01:45:12;;;;;;;2.53;1.75;;;11.10;99.90;;;;;;5092846;28;20211;-63
2023/10/16 01:47:40;;;;;;;2.13;0.95;;;11.30;99.90;;;;;;5089287;28;20665;-64
2023/10/16 01:50:13;;;;;;;1.98;1.45;;;11.70;99.90;;;;;;5095809;28;20202;-64
2023/10/16 01:52:40;;;;;;;2.42;1.40;;;12.00;99.90;;;;;;5078690;28;20204;-63
2023/10/16 01:55:16;;;;;;;1.67;1.55;;;12.00;99.90;;;;;;5087720;28;20214;-64
2023/10/16 01:57:45;;;;;;;2.47;1.40;;;11.80;99.90;;;;;;5091961;28;20207;-66
2023/10/16 02:00:16;;;;;;;1.25;1.15;;;11.80;99.90;;;;;;5092249;28;20668;-63
2023/10/16 02:02:45;;;;;;;1.70;0.90;;;11.60;99.90;;;;;;5084185;28;20223;-64
2023/10/16 02:05:15;;;;;;;2.25;1.00;;;11.80;99.90;;;;;;5088778;28;20210;-63
2023/10/16 02:07:45;;;;;;;1.40;1.30;;;11.30;99.90;;;;;;5083394;28;20206;-63
2023/10/16 02:10:14;;;;;;;2.85;1.15;;;11.20;99.90;;;;;;5091420;28;20293;-64
2023/10/16 02:12:44;;;;;;;2.90;1.13;;;11.00;99.90;;;;;;5089013;28;20203;-64
2023/10/16 02:15:14;;;;;;;3.28;1.27;;;11.00;99.90;;;;;;5087715;28;20214;-64
2023/10/16 02:17:42;;;;;;;2.35;1.35;;;10.80;99.90;;;;;;5086651;28;20207;-63
2023/10/16 02:20:13;;;;;;;1.38;1.25;;;11.00;99.90;;;;;;5091563;28;20288;-63
2023/10/16 02:22:41;;;;;;;1.52;0.90;;;11.30;99.90;;;;;;5083488;28;20219;-63
2023/10/16 02:25:10;;;;;;;3.78;1.25;;;11.30;99.90;;;;;;5086505;28;20210;-64
2023/10/16 02:27:41;;;;;;;2.00;1.30;;;11.40;99.90;;;;;;5091159;28;20673;-64
2023/10/16 02:30:28;;;;;;;1.77;1.05;;;11.50;99.90;;;;;;5089340;28;20216;-62
2023/10/16 02:33:00;;;;;;;2.85;1.17;;;11.00;99.90;;;;;;5085125;28;20220;-64
2023/10/16 02:35:28;;;;;;;3.33;1.98;;;11.10;99.90;;;;;;5091668;28;20199;-63
2023/10/16 02:37:57;;;;;;;2.97;1.13;;;11.10;99.90;;;;;;5090029;28;20206;-63
2023/10/16 02:40:26;;;;;;;1.48;1.17;;;11.20;99.90;;;;;;5089590;28;20194;-63
2023/10/16 02:43:00;;;;;;;2.35;1.30;;;11.10;99.90;;;;;;5090837;28;20242;-63
2023/10/16 02:45:33;;;;;;;3.00;1.33;;;10.90;99.90;;;;;;5091349;28;20206;-64
2023/10/16 02:48:02;;;;;;;2.00;1.35;;;10.80;99.90;;;;;;5091438;28;20213;-63
2023/10/16 02:50:30;;;;;;;1.30;1.08;;;10.90;99.90;;;;;;5088225;28;20282;-62
2023/10/16 02:52:58;;;;;;;2.95;1.08;;;11.10;99.90;;;;;;5070746;28;20200;-62
2023/10/16 02:55:26;;;;;;;1.73;1.45;;;11.30;99.90;;;;;;5088539;28;20733;-63
2023/10/16 02:57:57;;;;;;;1.33;1.23;;;11.30;99.90;;;;;;5090897;28;20206;-63
2023/10/16 03:00:34;;;;;;;3.15;1.27;;;11.40;99.90;;;;;;5091065;28;20194;-63
2023/10/16 03:03:05;;;;;;;1.30;1.20;;;10.80;99.90;;;;;;5091056;28;20226;-63
2023/10/16 03:05:33;;;;;;;4.35;1.50;;;10.90;99.90;;;;;;5090896;28;20289;-67
2023/10/16 03:08:01;;;;;;;1.83;1.13;;;10.80;99.90;;;;;;5083711;28;20210;-64
2023/10/16 03:10:30;;;;;;;1.70;1.25;;;11.00;99.90;;;;;;5090840;28;20202;-63
2023/10/16 03:13:05;;;;;;;1.63;1.52;;;11.20;99.90;;;;;;5090968;28;20286;-64
2023/10/16 03:15:42;;;;;;;1.83;1.30;;;11.40;99.90;;;;;;5090780;28;20210;-63
2023/10/16 03:18:16;;;;;;;1.30;0.85;;;11.60;99.90;;;;;;5090501;28;20255;-66
2023/10/16 03:20:45;;;;;;;1.38;1.27;;;11.30;99.90;;;;;;5086087;28;20285;-64
2023/10/16 03:23:18;;;;;;;1.48;1.20;;;11.30;99.90;;;;;;5074119;28;20223;-63
2023/10/16 03:25:52;;;;;;;1.67;1.35;;;11.10;99.90;;;;;;5086411;28;20914;-62
2023/10/16 03:28:22;;;;;;;1.50;1.40;;;11.00;99.90;;;;;;5088203;28;20199;-63
2023/10/16 03:30:50;;;;;;;1.75;1.50;;;11.30;99.90;;;;;;5090681;28;20268;-63
2023/10/16 03:33:18;;;;;;;2.38;1.67;;;11.10;99.90;;;;;;5090635;28;20317;-63
2023/10/16 03:35:49;;;;;;;1.50;1.40;;;10.80;99.90;;;;;;5087020;28;20207;-62
2023/10/16 03:38:28;;;;;;;2.53;1.70;;;10.60;99.90;;;;;;5093831;28;20203;-64
2023/10/16 03:40:58;;;;;;;2.03;1.73;;;10.30;99.90;;;;;;5095026;28;20209;-63
2023/10/16 03:43:28;;;;;;;2.13;1.90;;;10.20;99.90;;;;;;5098132;28;20233;-62
2023/10/16 03:45:58;;;;;;;1.63;1.40;;;10.70;99.90;;;;;;5094760;28;20206;-62
2023/10/16 03:48:26;;;;;;;3.65;1.95;;;10.70;99.90;;;;;;5094592;28;20620;-62
2023/10/16 03:50:56;;;;;;;1.95;1.75;;;10.40;99.90;;;;;;5088633;28;20666;-63
2023/10/16 03:53:24;;;;;;;4.18;1.60;;;10.30;99.90;;;;;;5083020;28;20296;-65
2023/10/16 03:55:53;;;;;;;4.10;1.98;;;10.50;99.90;;;;;;5094576;28;20229;-65
2023/10/16 03:58:21;;;;;;;2.58;1.50;;;10.40;99.90;;;;;;5090968;28;20199;-62
2023/10/16 04:00:57;;;;;;;1.35;1.13;;;10.30;99.90;;;;;;5091513;28;20572;-63
2023/10/16 04:03:27;;;;;;;3.47;1.88;;;10.40;99.90;;;;;;5090022;28;20230;-63
2023/10/16 04:05:55;;;;;;;2.60;1.45;;;10.80;99.90;;;;;;5093544;28;20255;-62
2023/10/16 04:08:22;;;;;;;1.63;1.27;;;10.80;99.90;;;;;;5090171;28;20549;-62
2023/10/16 04:10:53;;;;;;;2.55;2.17;;;10.90;99.90;;;;;;5094541;28;20686;-63
2023/10/16 04:13:26;;;;;;;3.80;1.70;;;10.70;99.90;;;;;;5094216;28;20719;-63
2023/10/16 04:16:09;;;;;;;4.72;2.00;;;10.50;99.90;;;;;;5094247;28;20210;-63
2023/10/16 04:18:39;;;;;;;1.88;1.60;;;10.40;99.90;;;;;;5093670;28;20253;-64
2023/10/16 04:23:53;;;;;;;3.88;2.00;;;10.40;99.90;;;;;;5081866;28;20683;-64
2023/10/16 04:26:47;;;;;;;4.03;1.83;;;10.60;99.90;;;;;;5090609;28;20214;-62
2023/10/16 04:29:28;;;;;;;2.17;1.70;;;10.70;99.90;;;;;;5093746;28;20203;-63
2023/10/16 04:32:06;;;;;;;1.40;1.30;;;10.60;99.90;;;;;;5089049;28;20202;-63
2023/10/16 04:34:34;;;;;;;1.40;1.30;;;10.80;99.90;;;;;;5093724;28;20218;-63
2023/10/16 04:43:03;;;;;;;2.50;1.83;;;10.60;99.90;;;;;;5091991;28;20233;-63
2023/10/16 04:45:39;;;;;;;3.00;1.83;;;10.20;99.90;;;;;;5093613;28;20205;-63
2023/10/16 04:48:23;;;;;;;1.60;1.25;;;10.30;99.90;;;;;;5094930;28;20288;-62
2023/10/16 04:51:09;;;;;;;3.45;1.80;;;10.30;99.90;;;;;;5083674;28;20206;-68
2023/10/16 04:53:59;;;;;;;3.20;2.15;;;10.40;99.90;;;;;;5082584;28;20222;-64
2023/10/16 04:59:36;;;;;;;2.03;1.85;;;8.50;99.90;;;;;;5079519;28;20214;-63
2023/10/16 05:02:16;;;;;;;2.85;2.45;;;7.60;99.90;;;;;;5081260;28;20213;-64
2023/10/16 05:05:32;;;;;;;2.97;2.45;;;6.90;99.90;;;;;;5078183;28;20595;-63
2023/10/16 05:08:30;;;;;;;2.40;1.90;;;6.40;99.90;;;;;;5078602;28;20831;-63
2023/10/16 05:13:55;;;;;;;3.75;2.55;;;5.70;99.90;;;;;;5078231;28;20778;-63
2023/10/16 05:16:35;;;;;;;3.38;2.72;;;5.50;99.90;;;;;;5078996;28;20286;-63
2023/10/16 05:19:04;;;;;;;3.60;2.40;;;5.40;99.90;;;;;;5078233;28;20313;-63
2023/10/16 05:22:02;;;;;;;2.85;2.42;;;5.30;99.90;;;;;;5076416;28;20368;-63
2023/10/16 06:14:35;;;;;;;4.15;3.10;;;4.70;99.90;;;;;;5079769;28;20234;-63
2023/10/16 06:17:15;;;;;;;3.85;3.42;;;4.70;99.90;;;;;;5080474;28;20405;-63
2023/10/16 06:19:44;;;;;;;4.80;3.22;;;4.70;99.90;;;;;;5079482;28;20210;-62
2023/10/16 06:22:12;;;;;;;2.95;2.63;;;4.70;99.90;;;;;;5079925;28;20217;-63
2023/10/16 06:24:44;;;;;;;4.85;3.75;;;4.80;99.90;;;;;;5078261;28;20292;-63
2023/10/16 06:27:19;;;;;;;4.07;2.45;;;4.80;99.90;;;;;;5086214;28;20222;-64
2023/10/16 06:29:50;;;;;;;7.35;3.25;;;4.90;99.90;;;;;;5089687;28;20301;-64
2023/10/16 06:32:19;;;;;;;3.67;3.13;;;4.80;99.90;;;;;;5136440;22;20240;-66
2023/10/16 06:34:48;;;;;;;5.03;2.83;;;4.80;99.90;;;;;;4989708;28;20198;-66
2023/10/16 06:37:17;;;;;;;7.43;3.33;;;4.90;99.90;;;;;;4990253;28;20698;-66
2023/10/16 06:39:46;;;;;;;3.97;3.58;;;4.80;99.90;;;;;;4989738;28;20252;-66
2023/10/16 06:42:17;;;;;;;4.60;4.07;;;4.80;99.90;;;;;;4990135;28;20321;-67
2023/10/16 06:44:50;;;;;;;4.22;3.10;;;4.70;99.90;;;;;;4989811;28;20469;-66
2023/10/16 06:47:23;;;;;;;4.28;3.40;;;4.80;99.90;;;;;;5000079;28;20305;-67
2023/10/16 06:49:52;;;;;;;4.63;3.85;;;4.70;99.90;;;;;;4991450;28;20241;-67
2023/10/16 06:52:20;;;;;;;4.03;3.35;;;4.80;99.90;;;;;;4993717;28;20229;-66
2023/10/16 06:54:48;;;;;;;4.32;3.90;;;4.80;99.90;;;;;;4991697;28;20209;-66
2023/10/16 06:57:19;;;;;;;3.67;3.00;;;4.70;99.90;;;;;;4991889;28;20201;-66
2023/10/16 06:59:50;;;;;;;4.68;3.78;;;4.70;99.90;;;;;;4991163;28;20212;-67
2023/10/16 07:02:20;;;;;;;4.55;3.65;;;4.80;99.90;;;;;;4991559;28;20259;-66
2023/10/16 07:04:48;;;;;;;5.63;4.15;;;4.80;99.90;;;;;;4991404;28;20241;-66
2023/10/16 07:07:17;;;;;;;5.75;4.00;;;4.80;99.90;;;;;;4991582;28;20206;-66
2023/10/16 07:09:49;;;;;;;6.15;4.82;;;4.90;99.90;;;;;;4991435;28;21015;-66
2023/10/16 07:12:19;;;;;;;6.70;5.03;;;4.90;99.90;;;;;;4991376;28;20696;-66
2023/10/16 07:14:55;;;;;;;6.28;4.60;;;4.90;99.90;;;;;;4991705;28;20198;-67
2023/10/16 07:17:25;;;;;;;6.40;4.70;;;5.00;99.90;;;;;;4991630;28;20589;-67
2023/10/16 07:19:58;;;;;;;4.95;3.92;;;5.00;99.90;;;;;;4991394;28;20206;-66
2023/10/16 07:22:31;;;;;;;5.72;4.32;;;5.20;99.90;;;;;;4993609;28;20256;-66
2023/10/16 07:25:22;;;;;;;7.57;5.07;;;5.20;99.90;;;;;;4991137;28;20602;-67
2023/10/16 07:27:58;;;;;;;5.50;4.82;;;5.30;99.90;;;;;;4991375;28;20202;-67
2023/10/16 07:30:27;;;;;;;7.72;5.88;;;5.40;99.90;;;;;;4991091;28;20209;-65
2023/10/16 07:32:55;;;;;;;5.88;4.68;;;5.50;99.90;;;;;;4995038;28;20261;-66
2023/10/16 07:35:24;;;;;;;9.00;4.68;;;5.50;99.90;;;;;;4999177;28;20553;-67
2023/10/16 07:37:53;;;;;;;7.18;5.20;;;5.60;99.90;;;;;;4991649;28;20547;-66
2023/10/16 07:40:21;;;;;;;6.88;5.20;;;5.60;99.90;;;;;;4991349;28;20649;-67
2023/10/16 07:42:49;;;;;;;9.60;5.95;;;5.70;99.90;;;;;;4990969;28;20222;-67
2023/10/16 07:45:19;;;;;;;5.95;4.78;;;5.80;99.90;;;;;;4990770;28;20639;-66
2023/10/16 07:47:48;;;;;;;6.82;4.78;;;5.80;99.90;;;;;;4990683;28;20235;-66
2023/10/16 07:50:16;;;;;;;4.78;4.03;;;5.80;99.90;;;;;;4998159;28;20236;-66
2023/10/16 07:52:44;;;;;;;7.30;4.75;;;5.80;99.90;;;;;;4992827;28;20642;-66
2023/10/16 07:55:18;;;;;;;6.13;4.40;;;5.90;99.90;;;;;;4990889;28;20194;-67
2023/10/16 07:57:47;;;;;;;7.45;4.22;;;6.00;99.90;;;;;;4991020;28;20218;-66
2023/10/16 08:00:16;;;;;;;6.97;5.05;;;6.10;99.90;;;;;;4990816;28;20553;-66
2023/10/16 08:02:45;;;;;;;6.20;4.45;;;6.20;99.90;;;;;;4990811;28;20234;-67
2023/10/16 08:05:16;;;;;;;6.07;4.70;;;6.30;99.90;;;;;;4990899;28;20222;-67
2023/10/16 08:07:52;;;;;;;7.53;4.35;;;6.50;99.90;;;;;;4992124;28;20622;-66
2023/10/16 08:10:41;;;;;;;6.00;3.90;;;6.60;99.90;;;;;;4990987;28;20205;-66
2023/10/16 08:13:12;;;;;;;5.60;4.20;;;6.60;99.90;;;;;;4991213;28;20206;-67
2023/10/16 08:15:44;;;;;;;4.88;3.63;;;6.80;99.90;;;;;;4991610;28;20571;-66
2023/10/16 08:18:14;;;;;;;5.40;3.85;;;6.90;99.90;;;;;;4996181;28;20560;-67
2023/10/16 08:21:00;;;;;;;8.07;4.40;;;7.00;99.90;;;;;;4992778;28;20659;-66
2023/10/16 08:23:34;;;;;;;7.28;4.65;;;7.00;99.90;;;;;;4994037;28;20210;-66
2023/10/16 08:26:14;;;;;;;4.75;4.25;;;7.10;99.90;;;;;;5001545;28;20214;-66
2023/10/16 08:28:45;;;;;;;5.95;4.82;;;7.20;99.90;;;;;;4994394;28;20582;-67
2023/10/16 08:31:23;;;;;;;6.30;4.20;;;7.20;99.90;;;;;;4993869;28;20234;-66
2023/10/16 08:33:55;;;;;;;6.95;4.45;;;7.30;99.90;;;;;;4995002;28;20206;-67
2023/10/16 08:36:23;;;;;;;6.38;3.97;;;7.40;99.90;;;;;;4994423;28;20655;-67
2023/10/16 08:38:55;;;;;;;6.40;4.68;;;7.50;99.90;;;;;;4997505;28;20656;-66
2023/10/16 08:44:14;;;;;;;9.63;5.13;;;7.70;99.90;;;;;;4994227;28;20252;-67
2023/10/16 08:46:52;;;;;;;6.30;4.55;;;7.80;99.90;;;;;;4994128;28;20284;-66
2023/10/16 08:49:23;;;;;;;9.32;5.20;;;8.00;99.90;;;;;;4994224;28;20287;-66
2023/10/16 08:51:52;;;;;;;6.45;4.68;;;8.20;99.90;;;;;;4996068;28;20292;-67
2023/10/16 08:54:53;;;;;;;5.57;4.03;;;8.40;99.90;;;;;;4997446;28;20628;-66
2023/10/16 08:57:22;;;;;;;5.80;4.10;;;8.50;99.90;;;;;;4994075;28;20201;-66
2023/10/16 08:59:50;;;;;;;5.80;4.00;;;8.80;99.90;;;;;;4993498;28;20240;-67
2023/10/16 09:02:21;;;;;;;8.90;5.05;;;8.90;99.90;;;;;;4993807;28;20705;-67
2023/10/16 09:04:52;;;;;;;4.40;3.80;;;9.00;99.90;;;;;;4993451;28;20217;-66
2023/10/16 09:07:23;;;;;;;7.00;4.60;;;9.20;99.90;;;;;;4998366;28;20201;-66
2023/10/16 09:09:53;;;;;;;6.03;4.35;;;9.30;99.90;;;;;;4993530;28;20680;-67
2023/10/16 09:12:26;;;;;;;5.00;3.95;;;9.60;99.90;;;;;;5001088;28;20226;-67
2023/10/16 09:15:05;;;;;;;5.22;3.50;;;9.80;99.90;;;;;;4993898;28;20202;-66
2023/10/16 09:17:34;;;;;;;5.22;4.05;;;10.10;99.90;;;;;;4993659;28;20206;-66
2023/10/16 09:20:13;;;;;;;7.55;4.43;;;10.10;99.90;;;;;;4993644;28;20245;-66
2023/10/16 09:22:45;;;;;;;6.78;4.10;;;10.40;99.90;;;;;;5000907;28;20226;-67
2023/10/16 09:25:15;;;;;;;5.72;4.78;;;10.60;99.90;;;;;;4993419;28;20218;-68
2023/10/16 09:28:04;;;;;;;5.70;4.78;;;10.80;99.90;;;;;;4994105;28;20623;-67
2023/10/16 09:30:33;;;;;;;5.43;4.20;;;11.10;99.90;;;;;;4992936;28;20206;-66
2023/10/16 09:33:03;;;;;;;4.00;3.60;;;11.10;99.90;;;;;;4997708;28;20323;-67
2023/10/16 09:35:33;;;;;;;7.47;3.58;;;11.30;99.90;;;;;;4994890;28;20610;-67
2023/10/16 09:38:17;;;;;;;4.97;3.83;;;11.60;99.90;;;;;;5001258;28;20202;-67
2023/10/16 09:40:58;;;;;;;5.57;4.10;;;11.70;99.90;;;;;;4992981;28;20685;-66
2023/10/16 09:43:27;;;;;;;5.15;3.55;;;11.90;99.90;;;;;;4993161;28;20285;-67
2023/10/16 09:48:42;;;;;;;4.68;3.53;;;12.50;99.90;;;;;;4992409;28;20214;-67
2023/10/16 09:51:13;;;;;;;4.95;4.45;;;12.70;99.90;;;;;;4994986;28;20687;-67
2023/10/16 09:53:41;;;;;;;4.80;3.80;;;12.70;99.90;;;;;;4992840;28;20210;-67
2023/10/16 09:56:12;;;;;;;4.25;3.25;;;12.70;99.90;;;;;;4992878;28;20198;-67
2023/10/16 09:58:45;;;;;;;4.70;3.75;;;12.80;99.90;;;;;;4992590;28;20640;-67
2023/10/16 10:01:28;;;;;;;4.55;3.95;;;12.80;99.90;;;;;;4992376;28;20228;-66
2023/10/16 10:03:57;;;;;;;5.82;4.70;;;12.90;99.90;;;;;;4992933;28;20268;-67
2023/10/16 10:06:34;;;;;;;3.50;3.20;;;12.80;99.90;;;;;;4992773;28;20313;-66
2023/10/16 10:09:27;;;;;;;5.30;3.58;;;12.50;99.90;;;;;;4992736;28;20198;-67
2023/10/16 10:12:13;;;;;;;3.70;2.78;;;12.40;99.90;;;;;;4992547;28;20222;-67
2023/10/16 10:14:49;;;;;;;5.80;3.85;;;12.30;99.90;;;;;;4992353;28;20655;-66
2023/10/16 10:17:20;;;;;;;3.35;3.05;;;12.40;99.90;;;;;;4992529;28;20212;-67
2023/10/16 10:19:54;;;;;;;3.35;2.20;;;12.70;99.90;;;;;;4992141;28;20210;-68
2023/10/16 10:22:27;;;;;;;3.00;2.00;;;12.60;99.90;;;;;;4994993;28;20226;-67
2023/10/16 10:25:11;;;;;;;2.72;2.38;;;12.80;99.90;;;;;;4992233;28;20202;-67
2023/10/16 10:27:47;;;;;;;2.45;2.10;;;12.90;99.90;;;;;;5000166;28;20216;-67
2023/10/16 10:30:18;;;;;;;2.33;2.13;;;13.10;99.90;;;;;;4992054;28;20210;-68
2023/10/16 10:32:53;;;;;;;3.35;2.85;;;12.90;99.90;;;;;;4991958;28;20619;-67
2023/10/16 10:35:26;;;;;;;2.55;2.25;;;12.90;99.90;;;;;;4994742;28;20615;-67
2023/10/16 10:38:17;;;;;;;2.90;2.05;;;12.90;99.90;;;;;;4992401;28;20289;-68
2023/10/16 10:41:14;;;;;;;2.25;2.05;;;12.80;99.90;;;;;;4993291;28;20210;-67
2023/10/16 10:43:47;;;;;;;1.65;1.55;;;12.90;99.90;;;;;;4991810;28;20557;-66
2023/10/16 10:46:25;;;;;;;1.85;1.70;;;12.90;99.90;;;;;;4991697;28;20225;-67
2023/10/16 10:48:56;;;;;;;2.67;2.20;;;13.30;99.90;;;;;;4992191;28;20210;-67
2023/10/16 10:51:30;;;;;;;2.60;2.40;;;13.60;99.90;;;;;;4995111;28;20248;-67
2023/10/16 10:54:03;;;;;;;2.33;2.13;;;13.90;99.90;;;;;;4991691;28;20205;-67
2023/10/16 10:56:41;;;;;;;2.35;1.75;;;13.80;99.90;;;;;;4991781;28;20202;-66
2023/10/16 10:59:10;;;;;;;1.65;1.13;;;13.80;99.90;;;;;;4996455;28;20208;-67
2023/10/16 11:01:50;;;;;;;2.15;1.92;;;13.80;99.90;;;;;;4994045;28;20312;-67
2023/10/16 11:04:18;;;;;;;2.55;1.95;;;13.90;99.90;;;;;;4991760;28;20259;-67
2023/10/16 11:06:51;;;;;;;4.05;2.83;;;14.10;99.90;;;;;;4991649;28;20234;-67
2023/10/16 11:09:26;;;;;;;5.22;2.67;;;14.10;99.90;;;;;;4991552;28;20221;-65
2023/10/16 11:11:54;;;;;;;4.13;2.67;;;14.30;99.90;;;;;;4999378;28;20240;-65
2023/10/16 11:14:35;;;;;;;2.97;2.72;;;14.40;99.90;;;;;;4991703;28;20661;-65
2023/10/16 11:17:05;;;;;;;3.97;2.40;;;14.50;99.90;;;;;;4991576;28;20201;-65
2023/10/16 11:19:47;;;;;;;3.13;2.45;;;14.60;99.90;;;;;;4991414;28;20206;-65
2023/10/16 11:22:19;;;;;;;1.90;1.75;;;14.60;99.90;;;;;;4994858;28;20213;-64
2023/10/16 11:24:49;;;;;;;2.95;2.65;;;14.60;99.90;;;;;;4991250;28;20697;-65
2023/10/16 11:27:17;;;;;;;1.75;1.65;;;14.30;99.90;;;;;;4991341;28;20303;-65
2023/10/16 11:29:46;;;;;;;3.83;2.00;;;14.60;99.90;;;;;;4990997;28;20214;-64
2023/10/16 11:32:14;;;;;;;2.10;1.45;;;14.70;99.90;;;;;;4990890;28;20237;-65
2023/10/16 11:34:44;;;;;;;1.95;1.30;;;14.60;99.90;;;;;;4991116;28;20218;-65
2023/10/16 11:37:13;;;;;;;2.78;1.80;;;14.30;99.90;;;;;;4991395;28;20641;-66
2023/10/16 11:39:44;;;;;;;5.65;2.17;;;14.30;99.90;;;;;;4990856;28;20752;-65
2023/10/16 11:42:15;;;;;;;1.90;1.50;;;14.40;99.90;;;;;;4991066;28;20731;-66
2023/10/16 11:44:44;;;;;;;1.77;1.65;;;14.50;99.90;;;;;;4991048;28;20212;-65
2023/10/16 11:47:18;;;;;;;2.92;2.28;;;14.70;99.90;;;;;;4991137;28;20312;-66
2023/10/16 11:49:53;;;;;;;2.22;1.55;;;14.60;99.90;;;;;;4993013;28;20217;-65
2023/10/16 11:52:23;;;;;;;2.65;1.52;;;14.30;99.90;;;;;;5000663;28;20637;-66
2023/10/16 11:54:56;;;;;;;2.83;1.73;;;14.60;99.90;;;;;;4992785;28;20301;-65
2023/10/16 11:57:27;;;;;;;4.50;2.25;;;15.30;99.90;;;;;;4991149;28;20355;-66
2023/10/16 11:59:55;;;;;;;6.50;1.70;;;15.60;99.90;;;;;;4994607;28;20209;-66
2023/10/16 12:02:29;;;;;;;1.83;1.67;;;15.60;99.90;;;;;;4994854;28;20276;-66
2023/10/16 12:05:05;;;;;;;1.70;1.60;;;15.60;99.90;;;;;;4995140;28;20212;-66
2023/10/16 12:07:33;;;;;;;4.78;1.88;;;15.70;99.90;;;;;;4994772;28;20305;-66
2023/10/16 12:10:05;;;;;;;2.20;1.67;;;15.70;99.90;;;;;;4994544;28;20217;-66
2023/10/16 12:12:35;;;;;;;1.52;1.13;;;15.80;99.90;;;;;;4994711;28;20224;-66
2023/10/16 12:15:04;;;;;;;2.75;1.40;;;15.90;99.90;;;;;;4994701;28;20277;-66
2023/10/16 12:17:32;;;;;;;2.75;1.55;;;15.90;99.90;;;;;;4994823;28;20302;-66
2023/10/16 12:20:07;;;;;;;4.15;1.30;;;16.30;99.90;;;;;;4994905;28;20220;-66
2023/10/16 12:22:39;;;;;;;1.20;1.10;;;16.50;99.90;;;;;;4994560;28;20225;-66
2023/10/16 12:25:09;;;;;;;1.67;1.02;;;16.00;99.90;;;;;;4997577;28;20201;-65
2023/10/16 12:27:39;;;;;;;1.88;1.33;;;15.80;99.90;;;;;;4998207;28;20249;-65
2023/10/16 12:30:13;;;;;;;4.68;1.20;;;15.60;99.90;;;;;;4994566;28;20222;-66
2023/10/16 12:32:41;;;;;;;1.33;1.23;;;15.80;99.90;;;;;;5053720;22;20369;-66
2023/10/16 12:35:11;;;;;;;2.67;1.88;;;15.50;99.90;;;;;;5001128;28;20206;-66
2023/10/16 12:37:40;;;;;;;1.45;1.17;;;15.20;99.90;;;;;;4994070;28;20205;-65
2023/10/16 12:40:24;;;;;;;1.30;1.00;;;15.60;99.90;;;;;;4994234;28;20261;-65
2023/10/16 12:42:55;;;;;;;2.10;1.10;;;15.80;99.90;;;;;;4994167;28;20238;-65
2023/10/16 12:45:23;;;;;;;0.80;0.75;;;15.50;99.90;;;;;;4994343;28;20206;-65
2023/10/16 12:47:52;;;;;;;1.83;0.98;;;15.80;99.90;;;;;;4993954;28;20222;-66
2023/10/16 12:50:27;;;;;;;1.55;0.73;;;15.90;99.90;;;;;;4996864;28;20209;-65
2023/10/16 12:52:56;;;;;;;0.80;0.60;;;16.20;99.20;;;;;;5013355;28;20225;-65
2023/10/16 12:55:24;;;;;;;2.25;0.82;;;16.30;98.50;;;;;;5000372;28;20210;-65
2023/10/16 12:57:54;;;;;;;1.23;1.00;;;16.40;98.40;;;;;;4993513;28;20206;-65
2023/10/16 13:00:23;;;;;;;1.35;0.90;;;16.20;98.00;;;;;;4994203;28;20562;-65
2023/10/16 13:02:52;;;;;;;1.23;0.90;;;15.80;97.20;;;;;;4993775;28;20630;-65
2023/10/16 13:05:24;;;;;;;0.80;0.70;;;15.40;98.60;;;;;;4999697;28;20215;-65
2023/10/16 13:07:52;;;;;;;3.08;0.73;;;15.40;99.80;;;;;;4995898;28;20228;-66
2023/10/16 13:10:26;;;;;;;0.70;0.57;;;15.40;99.30;;;;;;4993740;28;20229;-65
2023/10/16 13:12:56;;;;;;;2.38;1.17;;;15.60;99.90;;;;;;4993459;28;20712;-65
2023/10/16 13:15:25;;;;;;;1.75;0.82;;;15.80;99.20;;;;;;4993722;28;20213;-66
2023/10/16 13:17:53;;;;;;;1.77;0.70;;;15.60;99.00;;;;;;4993004;28;20209;-65
2023/10/16 13:20:27;;;;;;;2.65;0.60;;;15.60;98.30;;;;;;4997714;28;20206;-65
2023/10/16 13:22:56;;;;;;;0.80;0.57;;;15.60;98.00;;;;;;5012692;28;20280;-65
2023/10/16 13:25:30;;;;;;;1.80;0.85;;;15.20;98.80;;;;;;5008281;28;20206;-65
2023/10/16 13:28:00;;;;;;;0.70;0.57;;;14.90;99.40;;;;;;5001949;28;20221;-65
2023/10/16 13:30:31;;;;;;;2.30;0.65;;;14.70;98.90;;;;;;4999615;28;20206;-65
2023/10/16 13:33:06;;;;;;;0.90;0.60;;;14.40;99.60;;;;;;4993005;28;20237;-65
2023/10/16 13:35:38;;;;;;;1.55;0.88;;;14.10;99.90;;;;;;4993513;28;20205;-66
2023/10/16 13:38:07;;;;;;;1.50;0.55;;;14.20;99.20;;;;;;5001268;28;20233;-65
2023/10/16 13:40:35;;;;;;;0.60;0.50;;;14.00;99.70;;;;;;5001522;28;20201;-66
2023/10/16 13:43:10;;;;;;;2.83;0.60;;;14.00;99.90;;;;;;5002161;28;20237;-65
2023/10/16 13:45:39;;;;;;;2.25;0.57;;;13.90;99.90;;;;;;4993269;28;20216;-65
2023/10/16 13:48:09;;;;;;;0.90;0.65;;;13.80;99.90;;;;;;4992515;28;20316;-65
2023/10/16 13:50:37;;;;;;;2.45;0.60;;;13.90;99.90;;;;;;4996967;28;20248;-65
2023/10/16 13:53:08;;;;;;;0.90;0.70;;;13.80;99.90;;;;;;5012089;28;20288;-65
2023/10/16 13:55:36;;;;;;;0.80;0.73;;;13.80;99.90;;;;;;4998349;28;20202;-65
2023/10/16 13:58:06;;;;;;;0.90;0.70;;;13.90;99.90;;;;;;4993150;28;20206;-65
2023/10/16 14:00:36;;;;;;;0.88;0.73;;;13.90;99.90;;;;;;4992944;28;20206;-65
2023/10/16 14:03:07;;;;;;;3.38;1.00;;;13.70;99.90;;;;;;4992582;28;20232;-65
2023/10/16 14:05:38;;;;;;;3.25;0.80;;;13.50;99.90;;;;;;4992808;28;20292;-65
2023/10/16 14:08:09;;;;;;;3.95;0.80;;;13.30;99.90;;;;;;4992223;28;20222;-65
2023/10/16 14:10:38;;;;;;;1.55;0.50;;;13.10;99.90;;;;;;4992718;28;20242;-65
2023/10/16 14:13:18;;;;;;;3.85;0.77;;;13.00;99.90;;;;;;5000595;28;20233;-65
2023/10/16 14:15:47;;;;;;;0.80;0.60;;;12.90;99.90;;;;;;4996994;28;20206;-65
2023/10/16 14:18:20;;;;;;;0.90;0.70;;;12.80;99.90;;;;;;4992347;28;20209;-65
2023/10/16 14:20:49;;;;;;;0.60;0.50;;;12.80;99.90;;;;;;4997116;28;20221;-65
2023/10/16 14:23:18;;;;;;;2.20;0.55;;;12.70;99.90;;;;;;5011553;28;20307;-65
2023/10/16 14:25:48;;;;;;;1.17;0.60;;;12.50;99.90;;;;;;4996666;28;20209;-65
2023/10/16 14:28:27;;;;;;;1.00;0.80;;;12.40;99.90;;;;;;4999723;28;20221;-65